Home > Products > Valid Products > TAF

000
FTUS41 KRNK 182323
TAFBLF
TAF
KBLF 182323Z 1900/1924 29007KT P6SM OVC060
     FM190400 30005KT P6SM SCT007 OVC014
     FM190700 30006KT P6SM OVC006
     FM191400 31005KT P6SM BKN014
     FM191600 31005KT P6SM SCT019=



000
FTUS41 KRNK 182323
TAFDAN
TAF
KDAN 182323Z 1900/1924 00000KT P6SM BKN080
     FM191000 35004KT P6SM SCT060=



000
FTUS41 KRNK 182323
TAFLWB
TAF
KLWB 182323Z 1900/1924 27007KT P6SM SCT080 OVC090
     FM190500 28003KT P6SM OVC022
     FM191600 29005KT P6SM SCT030=



000
FTUS41 KRNK 182323
TAFLYH
TAF
KLYH 182323Z 1900/1924 23003KT P6SM BKN100
     FM190800 34003KT P6SM SCT080=



000
FTUS41 KRNK 182323
TAFROA
TAF
KROA 182323Z 1900/1924 31004KT P6SM OVC090
     FM191000 32006KT P6SM SCT060=



000
FTUS41 KRNK 182323
TAFBLF
TAF
KBLF 182323Z 1900/1924 29007KT P6SM OVC060
     FM190400 30005KT P6SM SCT007 OVC014
     FM190700 30006KT P6SM OVC006
     FM191400 31005KT P6SM BKN014
     FM191600 31005KT P6SM SCT019=



000
FTUS41 KRNK 182323
TAFLYH
TAF
KLYH 182323Z 1900/1924 23003KT P6SM BKN100
     FM190800 34003KT P6SM SCT080=



000
FTUS41 KRNK 182323
TAFDAN
TAF
KDAN 182323Z 1900/1924 00000KT P6SM BKN080
     FM191000 35004KT P6SM SCT060=



000
FTUS41 KRNK 182323
TAFROA
TAF
KROA 182323Z 1900/1924 31004KT P6SM OVC090
     FM191000 32006KT P6SM SCT060=



000
FTUS41 KRNK 182323
TAFLWB
TAF
KLWB 182323Z 1900/1924 27007KT P6SM SCT080 OVC090
     FM190500 28003KT P6SM OVC022
     FM191600 29005KT P6SM SCT030=



000
FTUS41 KRNK 181720
TAFROA
TAF
KROA 181720Z 1818/1918 28008KT P6SM OVC150
     FM182200 30005KT P6SM BKN100
     FM191000 32008KT P6SM SCT060=



000
FTUS41 KRNK 181720
TAFLWB
TAF
KLWB 181720Z 1818/1918 27006KT P6SM BKN120
     FM182300 29003KT P6SM OVC040
     FM190500 31003KT P6SM OVC025
     FM191600 29005KT P6SM OVC035=



000
FTUS41 KRNK 181720
TAFDAN
TAF
KDAN 181720Z 1818/1918 33008KT P6SM OVC120
     FM182300 31003KT P6SM OVC080
     FM191000 35006KT P6SM SCT080=



000
FTUS41 KRNK 181720
TAFDAN
TAF
KDAN 181720Z 1818/1918 33008KT P6SM OVC120
     FM182300 31003KT P6SM OVC080
     FM191000 35006KT P6SM SCT080=



000
FTUS41 KRNK 181720
TAFBLF
TAF
KBLF 181720Z 1818/1918 30005KT P6SM BKN100
     FM182300 28003KT P6SM SCT025
     FM190500 30005KT P6SM SCT003 OVC012
     FM190800 31006KT 6SM BR OVC003
     FM191500 31006KT P6SM OVC025=



000
FTUS41 KRNK 181720
TAFBLF
TAF
KBLF 181720Z 1818/1918 30005KT P6SM BKN100
     FM182300 28003KT P6SM SCT025
     FM190500 30005KT P6SM SCT003 OVC012
     FM190800 31006KT 6SM BR OVC003
     FM191500 31006KT P6SM OVC025=



000
FTUS41 KRNK 181720
TAFLWB
TAF
KLWB 181720Z 1818/1918 27006KT P6SM BKN120
     FM182300 29003KT P6SM OVC040
     FM190500 31003KT P6SM OVC025
     FM191600 29005KT P6SM OVC035=



000
FTUS41 KRNK 181720
TAFLYH
TAF
KLYH 181720Z 1818/1918 23006KT P6SM BKN150
     FM182300 VRB03KT P6SM OVC100
     FM191000 34006KT P6SM SCT080=



000
FTUS41 KRNK 181720
TAFLYH
TAF
KLYH 181720Z 1818/1918 23006KT P6SM BKN150
     FM182300 VRB03KT P6SM OVC100
     FM191000 34006KT P6SM SCT080=



000
FTUS41 KRNK 181720
TAFROA
TAF
KROA 181720Z 1818/1918 28008KT P6SM OVC150
     FM182200 30005KT P6SM BKN100
     FM191000 32008KT P6SM SCT060=



000
FTUS41 KRNK 181538 AAA
TAFBLF
TAF AMD
KBLF 181538Z 1816/1912 28006KT P6SM OVC010
     FM181900 28005KT P6SM OVC080
     FM190600 29006KT P6SM SCT007 OVC012=



000
FTUS41 KRNK 181538 AAA
TAFBLF
TAF AMD
KBLF 181538Z 1816/1912 28006KT P6SM OVC010
     FM181900 28005KT P6SM OVC080
     FM190600 29006KT P6SM SCT007 OVC012=



000
FTUS41 KRNK 181125
TAFLWB
TAF
KLWB 181125Z 1812/1912 29003KT P6SM SCT025 BKN150
     FM181500 26006KT P6SM BKN120
     FM190600 31002KT P6SM SCT020 BKN050
     FM190900 VRB03KT P6SM BKN015=



000
FTUS41 KRNK 181125
TAFDAN
TAF
KDAN 181125Z 1812/1912 31005KT P6SM SCT250
     FM181900 28007KT P6SM BKN120
     FM190000 31003KT P6SM SCT080=



000
FTUS41 KRNK 181125
TAFROA
TAF
KROA 181125Z 1812/1912 30006KT P6SM BKN250
     FM181600 30010KT P6SM BKN100
     FM190000 29006KT P6SM BKN080=



000
FTUS41 KRNK 181125
TAFBLF
TAF
KBLF 181125Z 1812/1912 30006KT P6SM OVC010
     FM181400 29008KT P6SM SCT007 BKN015
     FM181530 29005KT P6SM FEW020 BKN100
     FM181900 28005KT P6SM OVC080
     FM190600 29006KT P6SM SCT007 OVC012=



000
FTUS41 KRNK 181125
TAFLYH
TAF
KLYH 181125Z 1812/1912 00000KT P6SM BKN200
     FM181700 26006KT P6SM BKN120
     FM190000 00000KT P6SM BKN100=



000
FTUS41 KRNK 181125
TAFDAN
TAF
KDAN 181125Z 1812/1912 31005KT P6SM SCT250
     FM181900 28007KT P6SM BKN120
     FM190000 31003KT P6SM SCT080=



000
FTUS41 KRNK 181125
TAFLWB
TAF
KLWB 181125Z 1812/1912 29003KT P6SM SCT025 BKN150
     FM181500 26006KT P6SM BKN120
     FM190600 31002KT P6SM SCT020 BKN050
     FM190900 VRB03KT P6SM BKN015=



000
FTUS41 KRNK 181125
TAFLYH
TAF
KLYH 181125Z 1812/1912 00000KT P6SM BKN200
     FM181700 26006KT P6SM BKN120
     FM190000 00000KT P6SM BKN100=



000
FTUS41 KRNK 181125
TAFROA
TAF
KROA 181125Z 1812/1912 30006KT P6SM BKN250
     FM181600 30010KT P6SM BKN100
     FM190000 29006KT P6SM BKN080=



000
FTUS41 KRNK 181125
TAFBLF
TAF
KBLF 181125Z 1812/1912 30006KT P6SM OVC010
     FM181400 29008KT P6SM SCT007 BKN015
     FM181530 29005KT P6SM FEW020 BKN100
     FM181900 28005KT P6SM OVC080
     FM190600 29006KT P6SM SCT007 OVC012=



000
FTUS41 KRNK 180522 CCA
TAFBLF
TAF COR
KBLF 180522Z 1805/1906 29015G25KT P6SM OVC010
     FM181400 29008KT P6SM SCT007 BKN011
     FM181530 29005KT P6SM FEW020 BKN200
     FM181900 28005KT P6SM OVC090=



000
FTUS41 KRNK 180522 CCA
TAFBLF
TAF COR
KBLF 180522Z 1805/1906 29015G25KT P6SM OVC010
     FM181400 29008KT P6SM SCT007 BKN011
     FM181530 29005KT P6SM FEW020 BKN200
     FM181900 28005KT P6SM OVC090=



000
FTUS41 KRNK 180520
TAFBLF
TAF
KBLF 180520Z 1806/1906 29010KT P6SM OVC009
     FM181400 29008KT P6SM SCT007 BKN011
     FM181530 29005KT P6SM FEW020 BKN200
     FM181900 28005KT P6SM OVC090=



000
FTUS41 KRNK 180520
TAFROA
TAF
KROA 180520Z 1806/1906 31011G20KT P6SM SCT250
     FM181000 30006KT P6SM SCT250
     FM181700 30006KT P6SM BKN120=



000
FTUS41 KRNK 180520
TAFDAN
TAF
KDAN 180520Z 1806/1906 32005KT P6SM BKN250
     FM181900 28003KT P6SM BKN120=



000
FTUS41 KRNK 180520
TAFLYH
TAF
KLYH 180520Z 1806/1906 28004KT P6SM BKN250
     FM181900 26003KT P6SM BKN120=



000
FTUS41 KRNK 180520
TAFLWB
TAF
KLWB 180520Z 1806/1906 28009KT P6SM SCT022
      TEMPO 1806/1808 BKN022
     FM181400 26004KT P6SM BKN120=



000
FTUS41 KRNK 180520
TAFBLF
TAF
KBLF 180520Z 1806/1906 29010KT P6SM OVC009
     FM181400 29008KT P6SM SCT007 BKN011
     FM181530 29005KT P6SM FEW020 BKN200
     FM181900 28005KT P6SM OVC090=



000
FTUS41 KRNK 180520
TAFDAN
TAF
KDAN 180520Z 1806/1906 32005KT P6SM BKN250
     FM181900 28003KT P6SM BKN120=



000
FTUS41 KRNK 180520
TAFROA
TAF
KROA 180520Z 1806/1906 31011G20KT P6SM SCT250
     FM181000 30006KT P6SM SCT250
     FM181700 30006KT P6SM BKN120=



000
FTUS41 KRNK 180520
TAFLYH
TAF
KLYH 180520Z 1806/1906 28004KT P6SM BKN250
     FM181900 26003KT P6SM BKN120=



000
FTUS41 KRNK 180520
TAFLWB
TAF
KLWB 180520Z 1806/1906 28009KT P6SM SCT022
      TEMPO 1806/1808 BKN022
     FM181400 26004KT P6SM BKN120=



000
FTUS41 KRNK 180042 AAA
TAFLWB
TAF AMD
KLWB 180042Z 1801/1824 30003KT P6SM OVC022
     FM181400 27004KT P6SM SCT030 BKN150=



000
FTUS41 KRNK 180042 AAA
TAFLWB
TAF AMD
KLWB 180042Z 1801/1824 30003KT P6SM OVC022
     FM181400 27004KT P6SM SCT030 BKN150=



000
FTUS41 KRNK 180042 AAA
TAFLWB
TAF AMD
KLWB 180042Z 1801/1824 30003KT P6SM OVC022
     FM181400 27004KT P6SM SCT030 BKN150=



000
FTUS41 KRNK 180042 AAA
TAFLWB
TAF AMD
KLWB 180042Z 1801/1824 30003KT P6SM OVC022
     FM181400 27004KT P6SM SCT030 BKN150=



000
FTUS41 KRNK 172321
TAFLWB
TAF
KLWB 172321Z 1800/1824 29005KT P6SM SCT025 BKN250
     FM180200 30003KT P6SM BKN025
     FM181400 27004KT P6SM SCT030 BKN150=



000
FTUS41 KRNK 172321
TAFLYH
TAF
KLYH 172321Z 1800/1824 28003KT P6SM BKN250
     FM181800 24003KT P6SM SCT150 BKN250=



000
FTUS41 KRNK 172321
TAFDAN
TAF
KDAN 172321Z 1800/1824 31003KT P6SM OVC250
     FM181900 23003KT P6SM BKN150=



000
FTUS41 KRNK 172321
TAFBLF
TAF
KBLF 172321Z 1800/1824 28008KT P6SM SCT025 OVC250
     FM180300 29008KT P6SM SCT009 OVC015
     FM180800 30007KT P6SM OVC007
     FM181400 29009KT P6SM SCT007 OVC020
     FM181600 29007KT P6SM FEW025 BKN100=



000
FTUS41 KRNK 172321
TAFROA
TAF
KROA 172321Z 1800/1824 30007KT P6SM BKN250
     FM181600 28006KT P6SM BKN150=



000
FTUS41 KRNK 172321
TAFROA
TAF
KROA 172321Z 1800/1824 30007KT P6SM BKN250
     FM181600 28006KT P6SM BKN150=



000
FTUS41 KRNK 172321
TAFLWB
TAF
KLWB 172321Z 1800/1824 29005KT P6SM SCT025 BKN250
     FM180200 30003KT P6SM BKN025
     FM181400 27004KT P6SM SCT030 BKN150=



000
FTUS41 KRNK 172321
TAFDAN
TAF
KDAN 172321Z 1800/1824 31003KT P6SM OVC250
     FM181900 23003KT P6SM BKN150=



000
FTUS41 KRNK 172321
TAFBLF
TAF
KBLF 172321Z 1800/1824 28008KT P6SM SCT025 OVC250
     FM180300 29008KT P6SM SCT009 OVC015
     FM180800 30007KT P6SM OVC007
     FM181400 29009KT P6SM SCT007 OVC020
     FM181600 29007KT P6SM FEW025 BKN100=



000
FTUS41 KRNK 172321
TAFLYH
TAF
KLYH 172321Z 1800/1824 28003KT P6SM BKN250
     FM181800 24003KT P6SM SCT150 BKN250=



000
FTUS41 KRNK 172029 AAA
TAFLWB
TAF AMD
KLWB 172029Z 1720/1818 29007KT P6SM FEW025
     FM180200 30003KT P6SM BKN025
     FM181400 27004KT P6SM SCT030 BKN250=



000
FTUS41 KRNK 172029 AAA
TAFLWB
TAF AMD
KLWB 172029Z 1720/1818 29007KT P6SM FEW025
     FM180200 30003KT P6SM BKN025
     FM181400 27004KT P6SM SCT030 BKN250=



000
FTUS41 KRNK 172028 AAA
TAFBLF
TAF AMD
KBLF 172028Z 1720/1818 28010KT P6SM SCT025
     FM180300 29006KT P6SM SCT009 OVC015
     FM180800 30005KT P6SM OVC007=



000
FTUS41 KRNK 172028 AAA
TAFBLF
TAF AMD
KBLF 172028Z 1720/1818 28010KT P6SM SCT025
     FM180300 29006KT P6SM SCT009 OVC015
     FM180800 30005KT P6SM OVC007=



000
FTUS41 KRNK 171736
TAFDAN
TAF
KDAN 171736Z 1718/1818 29008KT P6SM SCT250
     FM180000 31003KT P6SM BKN250=



000
FTUS41 KRNK 171736
TAFROA
TAF
KROA 171736Z 1718/1818 29010G20KT P6SM SCT045 SCT250
     FM172200 29008KT P6SM BKN250=



000
FTUS41 KRNK 171736
TAFLWB
TAF
KLWB 171736Z 1718/1818 28012KT P6SM BKN025
     FM172200 29005KT P6SM SCT025
     FM180200 30003KT P6SM BKN025
     FM181400 27004KT P6SM SCT030 BKN250=



000
FTUS41 KRNK 171736
TAFROA
TAF
KROA 171736Z 1718/1818 29010G20KT P6SM SCT045 SCT250
     FM172200 29008KT P6SM BKN250=



000
FTUS41 KRNK 171736
TAFLYH
TAF
KLYH 171736Z 1718/1818 28010KT P6SM SCT250
     FM172200 28005KT P6SM BKN250
     FM180100 28004KT P6SM SCT250=



000
FTUS41 KRNK 171736
TAFBLF
TAF
KBLF 171736Z 1718/1818 29011G19KT P6SM SCT008 OVC012
     FM172000 29010KT P6SM SCT015 BKN025
     FM180200 29006KT P6SM SCT009 OVC015
     FM180800 30005KT P6SM OVC007=



000
FTUS41 KRNK 171736
TAFLYH
TAF
KLYH 171736Z 1718/1818 28010KT P6SM SCT250
     FM172200 28005KT P6SM BKN250
     FM180100 28004KT P6SM SCT250=



000
FTUS41 KRNK 171736
TAFLWB
TAF
KLWB 171736Z 1718/1818 28012KT P6SM BKN025
     FM172200 29005KT P6SM SCT025
     FM180200 30003KT P6SM BKN025
     FM181400 27004KT P6SM SCT030 BKN250=



000
FTUS41 KRNK 171736
TAFDAN
TAF
KDAN 171736Z 1718/1818 29008KT P6SM SCT250
     FM180000 31003KT P6SM BKN250=



000
FTUS41 KRNK 171736
TAFBLF
TAF
KBLF 171736Z 1718/1818 29011G19KT P6SM SCT008 OVC012
     FM172000 29010KT P6SM SCT015 BKN025
     FM180200 29006KT P6SM SCT009 OVC015
     FM180800 30005KT P6SM OVC007=



000
FTUS41 KRNK 171613 AAA
TAFLWB
TAF AMD
KLWB 171613Z 1716/1812 28012KT P6SM BKN025
     FM172200 29005KT P6SM SCT025
     FM180200 30003KT P6SM OVC015=



000
FTUS41 KRNK 171613 AAA
TAFLWB
TAF AMD
KLWB 171613Z 1716/1812 28012KT P6SM BKN025
     FM172200 29005KT P6SM SCT025
     FM180200 30003KT P6SM OVC015=



000
FTUS41 KRNK 171611 AAA
TAFROA
TAF AMD
KROA 171611Z 1716/1812 30013G22KT P6SM BKN040
     FM171800 29010G20KT P6SM SCT045
     FM172200 29008KT P6SM BKN250=



000
FTUS41 KRNK 171611 AAA
TAFROA
TAF AMD
KROA 171611Z 1716/1812 30013G22KT P6SM BKN040
     FM171800 29010G20KT P6SM SCT045
     FM172200 29008KT P6SM BKN250=



000
FTUS41 KRNK 171121
TAFLYH
TAF
KLYH 171121Z 1712/1812 23005KT P6SM BKN040
     FM171500 28009KT P6SM SCT040
     FM172100 28006KT P6SM BKN250
     FM180100 28004KT P6SM SCT250=



000
FTUS41 KRNK 171121
TAFROA
TAF
KROA 171121Z 1712/1812 28013G22KT P6SM OVC035
     FM171700 29010G20KT P6SM SCT030
     FM172200 29008KT P6SM BKN250=



000
FTUS41 KRNK 171121
TAFROA
TAF
KROA 171121Z 1712/1812 28013G22KT P6SM OVC035
     FM171700 29010G20KT P6SM SCT030
     FM172200 29008KT P6SM BKN250=



000
FTUS41 KRNK 171121
TAFLYH
TAF
KLYH 171121Z 1712/1812 23005KT P6SM BKN040
     FM171500 28009KT P6SM SCT040
     FM172100 28006KT P6SM BKN250
     FM180100 28004KT P6SM SCT250=



000
FTUS41 KRNK 171121
TAFLWB
TAF
KLWB 171121Z 1712/1812 27004KT P6SM -DZ SCT005 OVC012
     FM171500 28010KT P6SM OVC015
     FM172200 29005KT P6SM SCT025
     FM180200 30003KT P6SM OVC015=



000
FTUS41 KRNK 171121
TAFBLF
TAF
KBLF 171121Z 1712/1812 29010G18KT P6SM -RA OVC003
     FM171500 29011G19KT P6SM BKN007 OVC012
     FM172000 29010KT P6SM SCT025
     FM180200 29006KT P6SM SCT009 OVC015
     FM180800 30005KT P6SM OVC007=



000
FTUS41 KRNK 171121
TAFDAN
TAF
KDAN 171121Z 1712/1812 26010KT P6SM BKN045
     FM171400 29008KT P6SM SCT250
     FM180000 31003KT P6SM BKN150=



000
FTUS41 KRNK 170811 AAB
TAFLWB
TAF AMD
KLWB 170811Z 1708/1806 26005KT P6SM OVC007
     FM171500 28010KT P6SM OVC024
     FM172200 29005KT P6SM SCT025=



000
FTUS41 KRNK 170811 AAB
TAFLWB
TAF AMD
KLWB 170811Z 1708/1806 26005KT P6SM OVC007
     FM171500 28010KT P6SM OVC024
     FM172200 29005KT P6SM SCT025=



000
FTUS41 KRNK 170811 AAB
TAFLWB
TAF AMD
KLWB 170811Z 1708/1806 26005KT P6SM OVC007
     FM171500 28010KT P6SM OVC024
     FM172200 29005KT P6SM SCT025=



000
FTUS41 KRNK 170810 AAA
TAFBLF
TAF AMD
KBLF 170810Z 1708/1806 29010G21KT P6SM -SHRA OVC003
     FM171500 29011G19KT P6SM OVC015
     FM172000 29010KT P6SM SCT025=



000
FTUS41 KRNK 170810 AAA
TAFBLF
TAF AMD
KBLF 170810Z 1708/1806 29010G21KT P6SM -SHRA OVC003
     FM171500 29011G19KT P6SM OVC015
     FM172000 29010KT P6SM SCT025=



000
FTUS41 KRNK 170810 AAA
TAFBLF
TAF AMD
KBLF 170810Z 1708/1806 29010G21KT P6SM -SHRA OVC003
     FM171500 29011G19KT P6SM OVC015
     FM172000 29010KT P6SM SCT025=



000
FTUS41 KRNK 170730 AAA
TAFLWB
TAF AMD
KLWB 170730Z 1708/1806 30007KT P6SM OVC010
     FM171500 28010KT P6SM OVC024
     FM172200 29005KT P6SM SCT025=



000
FTUS41 KRNK 170730 AAA
TAFLWB
TAF AMD
KLWB 170730Z 1708/1806 30007KT P6SM OVC010
     FM171500 28010KT P6SM OVC024
     FM172200 29005KT P6SM SCT025=



000
FTUS41 KRNK 170730 AAA
TAFLWB
TAF AMD
KLWB 170730Z 1708/1806 30007KT P6SM OVC010
     FM171500 28010KT P6SM OVC024
     FM172200 29005KT P6SM SCT025=



000
FTUS41 KRNK 170730 AAA
TAFLWB
TAF AMD
KLWB 170730Z 1708/1806 30007KT P6SM OVC010
     FM171500 28010KT P6SM OVC024
     FM172200 29005KT P6SM SCT025=



000
FTUS41 KRNK 170520
TAFDAN
TAF
KDAN 170520Z 1706/1806 29006KT P6SM FEW040=



000
FTUS41 KRNK 170520
TAFLWB
TAF
KLWB 170520Z 1706/1806 28006KT P6SM OVC022
     FM171500 28010KT P6SM OVC024
     FM172200 29005KT P6SM SCT025=



000
FTUS41 KRNK 170520
TAFLWB
TAF
KLWB 170520Z 1706/1806 28006KT P6SM OVC022
     FM171500 28010KT P6SM OVC024
     FM172200 29005KT P6SM SCT025=



000
FTUS41 KRNK 170520
TAFLYH
TAF
KLYH 170520Z 1706/1806 26004KT P6SM SCT040
     FM171400 28009KT P6SM SCT040
     FM172100 28006KT P6SM SCT250=



000
FTUS41 KRNK 170520
TAFLYH
TAF
KLYH 170520Z 1706/1806 26004KT P6SM SCT040
     FM171400 28009KT P6SM SCT040
     FM172100 28006KT P6SM SCT250=



000
FTUS41 KRNK 170520
TAFBLF
TAF
KBLF 170520Z 1706/1806 29011G19KT P6SM -DZ OVC007
     FM171500 29011G19KT P6SM OVC015
     FM172000 29010KT P6SM SCT025=



000
FTUS41 KRNK 170520
TAFROA
TAF
KROA 170520Z 1706/1806 30012G20KT P6SM BKN035
     FM171500 29012G22KT P6SM SCT030
     FM172100 29008KT P6SM SCT250=



000
FTUS41 KRNK 170520
TAFROA
TAF
KROA 170520Z 1706/1806 30012G20KT P6SM BKN035
     FM171500 29012G22KT P6SM SCT030
     FM172100 29008KT P6SM SCT250=



000
FTUS41 KRNK 170520
TAFDAN
TAF
KDAN 170520Z 1706/1806 29006KT P6SM FEW040=



000
FTUS41 KRNK 170520
TAFBLF
TAF
KBLF 170520Z 1706/1806 29011G19KT P6SM -DZ OVC007
     FM171500 29011G19KT P6SM OVC015
     FM172000 29010KT P6SM SCT025=



000
FTUS41 KRNK 170335 AAA
TAFBLF
TAF AMD
KBLF 170335Z 1704/1724 28013G17KT P6SM -DZ BKN008 OVC014
      TEMPO 1704/1706 5SM -SHRA SCT008 OVC014
     FM171500 29013G23KT P6SM SCT012 OVC025
     FM172000 29010KT P6SM SCT025 SCT250=



000
FTUS41 KRNK 170335 AAA
TAFBLF
TAF AMD
KBLF 170335Z 1704/1724 28013G17KT P6SM -DZ BKN008 OVC014
      TEMPO 1704/1706 5SM -SHRA SCT008 OVC014
     FM171500 29013G23KT P6SM SCT012 OVC025
     FM172000 29010KT P6SM SCT025 SCT250=



000
FTUS41 KRNK 170335 AAA
TAFBLF
TAF AMD
KBLF 170335Z 1704/1724 28013G17KT P6SM -DZ BKN008 OVC014
      TEMPO 1704/1706 5SM -SHRA SCT008 OVC014
     FM171500 29013G23KT P6SM SCT012 OVC025
     FM172000 29010KT P6SM SCT025 SCT250=



000
FTUS41 KRNK 170335 AAA
TAFBLF
TAF AMD
KBLF 170335Z 1704/1724 28013G17KT P6SM -DZ BKN008 OVC014
      TEMPO 1704/1706 5SM -SHRA SCT008 OVC014
     FM171500 29013G23KT P6SM SCT012 OVC025
     FM172000 29010KT P6SM SCT025 SCT250=



000
FTUS41 KRNK 170208 AAB
TAFLYH
TAF AMD
KLYH 170208Z 1702/1724 00000KT 4SM BR SCT002
      TEMPO 1702/1704 1/2SM FG BKN002
     FM170400 28006KT 5SM BR SCT040
     FM171400 28009G19KT P6SM BKN040
     FM172100 29006KT P6SM FEW040 SCT250=



000
FTUS41 KRNK 170208 AAB
TAFLYH
TAF AMD
KLYH 170208Z 1702/1724 00000KT 4SM BR SCT002
      TEMPO 1702/1704 1/2SM FG BKN002
     FM170400 28006KT 5SM BR SCT040
     FM171400 28009G19KT P6SM BKN040
     FM172100 29006KT P6SM FEW040 SCT250=



000
FTUS41 KRNK 170059 AAA
TAFLYH
TAF AMD
KLYH 170059Z 1701/1724 VRB03KT 4SM BR BKN060
      TEMPO 1701/1703 2SM BR
     FM170300 28006KT P6SM BKN040
     FM171400 28009G19KT P6SM BKN040
     FM172100 29006KT P6SM FEW040 SCT250=



000
FTUS41 KRNK 170059 AAA
TAFLYH
TAF AMD
KLYH 170059Z 1701/1724 VRB03KT 4SM BR BKN060
      TEMPO 1701/1703 2SM BR
     FM170300 28006KT P6SM BKN040
     FM171400 28009G19KT P6SM BKN040
     FM172100 29006KT P6SM FEW040 SCT250=



000
FTUS41 KRNK 162327
TAFLYH
TAF
KLYH 162327Z 1700/1724 22005KT P6SM BKN010
     FM170100 25006KT P6SM FEW010 BKN040
     FM170400 28006KT P6SM BKN040
     FM171400 28009G19KT P6SM BKN040
     FM172100 29006KT P6SM FEW040 SCT250=



000
FTUS41 KRNK 162327
TAFBLF
TAF
KBLF 162327Z 1700/1724 29013G23KT P6SM VCSH SCT025 OVC035
      TEMPO 1700/1703 -SHRA OVC025
     FM170400 29013G23KT P6SM SCT015 OVC025
     FM170900 29010G20KT P6SM OVC012
     FM171500 29013G23KT P6SM SCT012 OVC025
     FM172000 29010KT P6SM SCT025 SCT250=



000
FTUS41 KRNK 162327
TAFDAN
TAF
KDAN 162327Z 1700/1724 23004KT P6SM SCT020
      TEMPO 1700/1703 5SM BR
     FM170300 28006KT P6SM FEW025
     FM171400 29009G19KT P6SM FEW030 SCT250
     FM172200 28004KT P6SM SCT250=



000
FTUS41 KRNK 162327
TAFROA
TAF
KROA 162327Z 1700/1724 29010G20KT P6SM BKN050
     FM171300 30013G26KT P6SM SCT040 SCT250
     FM172300 30008KT P6SM FEW040 SCT250=



000
FTUS41 KRNK 162327
TAFLWB
TAF
KLWB 162327Z 1700/1724 26006KT P6SM VCSH SCT020 OVC035
      TEMPO 1700/1704 -SHRA OVC020
     FM170400 28006KT P6SM OVC015
     FM171400 29010KT P6SM SCT010 OVC025
     FM172200 29004KT P6SM BKN025=



000
FTUS41 KRNK 162327
TAFLYH
TAF
KLYH 162327Z 1700/1724 22005KT P6SM BKN010
     FM170100 25006KT P6SM FEW010 BKN040
     FM170400 28006KT P6SM BKN040
     FM171400 28009G19KT P6SM BKN040
     FM172100 29006KT P6SM FEW040 SCT250=



000
FTUS41 KRNK 162327
TAFLWB
TAF
KLWB 162327Z 1700/1724 26006KT P6SM VCSH SCT020 OVC035
      TEMPO 1700/1704 -SHRA OVC020
     FM170400 28006KT P6SM OVC015
     FM171400 29010KT P6SM SCT010 OVC025
     FM172200 29004KT P6SM BKN025=



000
FTUS41 KRNK 162327
TAFROA
TAF
KROA 162327Z 1700/1724 29010G20KT P6SM BKN050
     FM171300 30013G26KT P6SM SCT040 SCT250
     FM172300 30008KT P6SM FEW040 SCT250=



000
FTUS41 KRNK 162327
TAFDAN
TAF
KDAN 162327Z 1700/1724 23004KT P6SM SCT020
      TEMPO 1700/1703 5SM BR
     FM170300 28006KT P6SM FEW025
     FM171400 29009G19KT P6SM FEW030 SCT250
     FM172200 28004KT P6SM SCT250=



000
FTUS41 KRNK 162327
TAFBLF
TAF
KBLF 162327Z 1700/1724 29013G23KT P6SM VCSH SCT025 OVC035
      TEMPO 1700/1703 -SHRA OVC025
     FM170400 29013G23KT P6SM SCT015 OVC025
     FM170900 29010G20KT P6SM OVC012
     FM171500 29013G23KT P6SM SCT012 OVC025
     FM172000 29010KT P6SM SCT025 SCT250=



000
FTUS41 KRNK 162154 AAB
TAFLWB
TAF AMD
KLWB 162154Z 1622/1718 30009KT P6SM -SHRA SCT018 OVC025
      TEMPO 1622/1701 OVC018
     FM170100 28008KT P6SM VCSH OVC012
     FM171000 VRB04KT 4SM BR OVC005
     FM171400 29013G20KT P6SM SCT010 OVC018=



000
FTUS41 KRNK 162154 AAB
TAFLWB
TAF AMD
KLWB 162154Z 1622/1718 30009KT P6SM -SHRA SCT018 OVC025
      TEMPO 1622/1701 OVC018
     FM170100 28008KT P6SM VCSH OVC012
     FM171000 VRB04KT 4SM BR OVC005
     FM171400 29013G20KT P6SM SCT010 OVC018=



000
FTUS41 KRNK 162115 AAB
TAFLYH
TAF AMD
KLYH 162115Z 1621/1718 VRB03KT 5SM BR OVC006
     FM162300 22005KT P6SM SCT012 BKN025
     FM170100 27006KT P6SM SCT045 BKN100
     FM171400 29009G19KT P6SM SCT100 BKN250=



000
FTUS41 KRNK 162115 AAB
TAFLYH
TAF AMD
KLYH 162115Z 1621/1718 VRB03KT 5SM BR OVC006
     FM162300 22005KT P6SM SCT012 BKN025
     FM170100 27006KT P6SM SCT045 BKN100
     FM171400 29009G19KT P6SM SCT100 BKN250=



000
FTUS41 KRNK 162031 AAA
TAFBLF
TAF AMD
KBLF 162031Z 1621/1718 24012G22KT P6SM SCT015 BKN035
     FM162200 26010G20KT P6SM VCSH OVC025
     FM170000 27011KT P6SM OVC015
     FM170300 28008KT 6SM BR OVC007
     FM171200 29013G20KT P6SM SCT012 OVC025=



000
FTUS41 KRNK 162031 AAA
TAFBLF
TAF AMD
KBLF 162031Z 1621/1718 24012G22KT P6SM SCT015 BKN035
     FM162200 26010G20KT P6SM VCSH OVC025
     FM170000 27011KT P6SM OVC015
     FM170300 28008KT 6SM BR OVC007
     FM171200 29013G20KT P6SM SCT012 OVC025=



000
FTUS41 KRNK 162002 AAA
TAFLWB
TAF AMD
KLWB 162002Z 1620/1718 24004KT P6SM VCSH SCT020 OVC045
     FM162200 27007G14KT P6SM -SHRA OVC025
     FM170000 28008KT P6SM OVC018
     FM171000 VRB04KT 4SM BR OVC005
     FM171400 29013G20KT P6SM SCT010 OVC018=



000
FTUS41 KRNK 162002 AAA
TAFLWB
TAF AMD
KLWB 162002Z 1620/1718 24004KT P6SM VCSH SCT020 OVC045
     FM162200 27007G14KT P6SM -SHRA OVC025
     FM170000 28008KT P6SM OVC018
     FM171000 VRB04KT 4SM BR OVC005
     FM171400 29013G20KT P6SM SCT010 OVC018=



000
FTUS41 KRNK 162000 AAA
TAFDAN
TAF AMD
KDAN 162000Z 1620/1718 20004KT P6SM VCSH OVC010
     FM162300 22005KT P6SM SCT025 OVC050
     FM170100 29006KT P6SM SCT045
     FM171400 29010KT P6SM SCT100 BKN250=



000
FTUS41 KRNK 162000 AAA
TAFDAN
TAF AMD
KDAN 162000Z 1620/1718 20004KT P6SM VCSH OVC010
     FM162300 22005KT P6SM SCT025 OVC050
     FM170100 29006KT P6SM SCT045
     FM171400 29010KT P6SM SCT100 BKN250=



000
FTUS41 KRNK 161930 AAA
TAFLYH
TAF AMD
KLYH 161930Z 1620/1718 00000KT 5SM BR OVC006
     FM162100 22005KT P6SM SCT012 BKN025
     FM170100 27006KT P6SM SCT045 BKN100
     FM171400 29009G19KT P6SM SCT100 BKN250=



000
FTUS41 KRNK 161930 AAA
TAFLYH
TAF AMD
KLYH 161930Z 1620/1718 00000KT 5SM BR OVC006
     FM162100 22005KT P6SM SCT012 BKN025
     FM170100 27006KT P6SM SCT045 BKN100
     FM171400 29009G19KT P6SM SCT100 BKN250=



000
FTUS41 KRNK 161723
TAFLYH
TAF
KLYH 161723Z 1618/1718 18008KT 6SM BR OVC014
     FM161900 22005KT P6SM SCT017 BKN030
     FM170100 27006KT P6SM SCT045 BKN100
     FM171400 29009G19KT P6SM SCT100 BKN250=



000
FTUS41 KRNK 161723
TAFLWB
TAF
KLWB 161723Z 1618/1718 24004KT P6SM SCT020 BKN045
     FM162000 27007G14KT P6SM OVC025
     FM170000 28008KT P6SM OVC018
     FM171000 VRB04KT 4SM BR OVC005
     FM171400 29013G20KT P6SM SCT010 OVC018=



000
FTUS41 KRNK 161723
TAFROA
TAF
KROA 161723Z 1618/1718 20006KT P6SM SCT035 BKN110
     FM162100 28011KT P6SM BKN045
     FM170200 29011G22KT P6SM SCT050
     FM171300 32013G26KT P6SM SCT060 BKN250=



000
FTUS41 KRNK 161723
TAFBLF
TAF
KBLF 161723Z 1618/1718 24012G22KT P6SM SCT015 BKN035
     FM162000 26009G18KT P6SM OVC025
     FM170000 27011KT P6SM OVC015
     FM170300 28008KT 6SM BR OVC007
     FM171200 29013G20KT P6SM SCT012 OVC025=



000
FTUS41 KRNK 161723
TAFDAN
TAF
KDAN 161723Z 1618/1718 VRB03KT 5SM -RA OVC019
     FM162000 22005KT P6SM SCT025 OVC050
     FM170100 29006KT P6SM SCT045
     FM171400 29010KT P6SM SCT100 BKN250=



000
FTUS41 KRNK 161723
TAFLWB
TAF
KLWB 161723Z 1618/1718 24004KT P6SM SCT020 BKN045
     FM162000 27007G14KT P6SM OVC025
     FM170000 28008KT P6SM OVC018
     FM171000 VRB04KT 4SM BR OVC005
     FM171400 29013G20KT P6SM SCT010 OVC018=



000
FTUS41 KRNK 161723
TAFLYH
TAF
KLYH 161723Z 1618/1718 18008KT 6SM BR OVC014
     FM161900 22005KT P6SM SCT017 BKN030
     FM170100 27006KT P6SM SCT045 BKN100
     FM171400 29009G19KT P6SM SCT100 BKN250=



000
FTUS41 KRNK 161723
TAFROA
TAF
KROA 161723Z 1618/1718 20006KT P6SM SCT035 BKN110
     FM162100 28011KT P6SM BKN045
     FM170200 29011G22KT P6SM SCT050
     FM171300 32013G26KT P6SM SCT060 BKN250=



000
FTUS41 KRNK 161723
TAFBLF
TAF
KBLF 161723Z 1618/1718 24012G22KT P6SM SCT015 BKN035
     FM162000 26009G18KT P6SM OVC025
     FM170000 27011KT P6SM OVC015
     FM170300 28008KT 6SM BR OVC007
     FM171200 29013G20KT P6SM SCT012 OVC025=



000
FTUS41 KRNK 161723
TAFDAN
TAF
KDAN 161723Z 1618/1718 VRB03KT 5SM -RA OVC019
     FM162000 22005KT P6SM SCT025 OVC050
     FM170100 29006KT P6SM SCT045
     FM171400 29010KT P6SM SCT100 BKN250=



000
FTUS41 KRNK 161559 AAE
TAFLYH
TAF AMD
KLYH 161559Z 1616/1712 17007KT 3SM BR BKN004 OVC026
     FM161630 19005KT 6SM -SHRA SCT007 OVC030
     FM161800 22005KT P6SM SCT018 BKN060
     FM170100 27006KT P6SM SCT045=



000
FTUS41 KRNK 161559 AAE
TAFLYH
TAF AMD
KLYH 161559Z 1616/1712 17007KT 3SM BR BKN004 OVC026
     FM161630 19005KT 6SM -SHRA SCT007 OVC030
     FM161800 22005KT P6SM SCT018 BKN060
     FM170100 27006KT P6SM SCT045=



000
FTUS41 KRNK 161559 AAE
TAFLYH
TAF AMD
KLYH 161559Z 1616/1712 17007KT 3SM BR BKN004 OVC026
     FM161630 19005KT 6SM -SHRA SCT007 OVC030
     FM161800 22005KT P6SM SCT018 BKN060
     FM170100 27006KT P6SM SCT045=



000
FTUS41 KRNK 161559 AAE
TAFLYH
TAF AMD
KLYH 161559Z 1616/1712 17007KT 3SM BR BKN004 OVC026
     FM161630 19005KT 6SM -SHRA SCT007 OVC030
     FM161800 22005KT P6SM SCT018 BKN060
     FM170100 27006KT P6SM SCT045=



000
FTUS41 KRNK 161544 AAD
TAFLYH
TAF AMD
KLYH 161544Z 1616/1712 20004KT 3SM BR SCT003 BKN027 OVC045
     FM161630 19005KT 6SM -SHRA SCT007 OVC030
     FM161800 22005KT P6SM SCT018 BKN060
     FM170100 27006KT P6SM SCT045=



000
FTUS41 KRNK 161544 AAD
TAFLYH
TAF AMD
KLYH 161544Z 1616/1712 20004KT 3SM BR SCT003 BKN027 OVC045
     FM161630 19005KT 6SM -SHRA SCT007 OVC030
     FM161800 22005KT P6SM SCT018 BKN060
     FM170100 27006KT P6SM SCT045=



000
FTUS41 KRNK 161537 AAA
TAFLWB
TAF AMD
KLWB 161537Z 1616/1712 24004KT P6SM SCT020 BKN045
     FM162000 27007G14KT P6SM OVC025
     FM170000 28008KT P6SM OVC018=



000
FTUS41 KRNK 161537 AAA
TAFLWB
TAF AMD
KLWB 161537Z 1616/1712 24004KT P6SM SCT020 BKN045
     FM162000 27007G14KT P6SM OVC025
     FM170000 28008KT P6SM OVC018=



000
FTUS41 KRNK 161537 AAA
TAFLWB
TAF AMD
KLWB 161537Z 1616/1712 24004KT P6SM SCT020 BKN045
     FM162000 27007G14KT P6SM OVC025
     FM170000 28008KT P6SM OVC018=



000
FTUS41 KRNK 161536 AAC
TAFLYH
TAF AMD
KLYH 161536Z 1616/1712 18005KT 3SM -RA BR BKN003 BKN027 OVC080
     FM161630 19005KT 6SM -SHRA SCT007 OVC030
     FM161800 22005KT P6SM SCT018 BKN060
     FM170100 27006KT P6SM SCT045=



000
FTUS41 KRNK 161536 AAC
TAFLYH
TAF AMD
KLYH 161536Z 1616/1712 18005KT 3SM -RA BR BKN003 BKN027 OVC080
     FM161630 19005KT 6SM -SHRA SCT007 OVC030
     FM161800 22005KT P6SM SCT018 BKN060
     FM170100 27006KT P6SM SCT045=



000
FTUS41 KRNK 161524 AAC
TAFDAN
TAF AMD
KDAN 161524Z 1615/1712 VRB03KT 3SM BR BKN024 OVC070
     FM161600 21007KT 6SM -RA SCT015 OVC030
     FM161800 22005KT P6SM SCT025 OVC050
     FM170100 29006KT P6SM SCT045=



000
FTUS41 KRNK 161524 AAC
TAFDAN
TAF AMD
KDAN 161524Z 1615/1712 VRB03KT 3SM BR BKN024 OVC070
     FM161600 21007KT 6SM -RA SCT015 OVC030
     FM161800 22005KT P6SM SCT025 OVC050
     FM170100 29006KT P6SM SCT045=



000
FTUS41 KRNK 161500 AAB
TAFLYH
TAF AMD
KLYH 161500Z 1615/1712 19003KT 1 1/2SM RA BR BKN030 OVC045
     FM161530 19005KT 6SM -SHRA OVC030
     FM161800 22005KT P6SM SCT018 BKN060
     FM170100 27006KT P6SM SCT045=



000
FTUS41 KRNK 161500 AAB
TAFLYH
TAF AMD
KLYH 161500Z 1615/1712 19003KT 1 1/2SM RA BR BKN030 OVC045
     FM161530 19005KT 6SM -SHRA OVC030
     FM161800 22005KT P6SM SCT018 BKN060
     FM170100 27006KT P6SM SCT045=



000
FTUS41 KRNK 161431 AAB
TAFDAN
TAF AMD
KDAN 161431Z 1615/1712 18004KT 1 1/2SM RA BR BKN035 OVC060
     FM161600 21007KT 6SM -RA SCT015 OVC030
     FM161800 22005KT P6SM SCT025 OVC050
     FM170100 29006KT P6SM SCT045=



000
FTUS41 KRNK 161431 AAB
TAFDAN
TAF AMD
KDAN 161431Z 1615/1712 18004KT 1 1/2SM RA BR BKN035 OVC060
     FM161600 21007KT 6SM -RA SCT015 OVC030
     FM161800 22005KT P6SM SCT025 OVC050
     FM170100 29006KT P6SM SCT045=



000
FTUS41 KRNK 161421 AAA
TAFLYH
TAF AMD
KLYH 161421Z 1614/1712 23003KT 1 1/2SM RA BR SCT015 BKN030 OVC080
     FM161500 19005KT 6SM -SHRA OVC030
     FM161800 22005KT P6SM SCT018 BKN060
     FM170100 27006KT P6SM SCT045=



000
FTUS41 KRNK 161421 AAA
TAFLYH
TAF AMD
KLYH 161421Z 1614/1712 23003KT 1 1/2SM RA BR SCT015 BKN030 OVC080
     FM161500 19005KT 6SM -SHRA OVC030
     FM161800 22005KT P6SM SCT018 BKN060
     FM170100 27006KT P6SM SCT045=



000
FTUS41 KRNK 161401 AAA
TAFDAN
TAF AMD
KDAN 161401Z 1614/1712 VRB03KT 2SM RA BR BKN035 OVC080
     FM161430 23004KT 6SM -SHRA SCT015 OVC035
     FM161800 22005KT P6SM SCT025 OVC050
     FM170100 29006KT P6SM SCT045=



000
FTUS41 KRNK 161401 AAA
TAFDAN
TAF AMD
KDAN 161401Z 1614/1712 VRB03KT 2SM RA BR BKN035 OVC080
     FM161430 23004KT 6SM -SHRA SCT015 OVC035
     FM161800 22005KT P6SM SCT025 OVC050
     FM170100 29006KT P6SM SCT045=



000
FTUS41 KRNK 161139
TAFROA
TAF
KROA 161139Z 1612/1712 00000KT P6SM OVC070
     FM161300 15003KT 6SM -SHRA SCT030 OVC060
      TEMPO 1613/1617 3SM -SHRA OVC030
     FM161800 24006KT P6SM SCT035 BKN110
     FM162100 28011KT P6SM BKN045
     FM170200 29012G22KT P6SM SCT050=



000
FTUS41 KRNK 161139
TAFDAN
TAF
KDAN 161139Z 1612/1712 20003KT P6SM SCT035 OVC080
     FM161400 23004KT 6SM -SHRA SCT015 OVC035
     FM161800 22005KT P6SM SCT025 OVC050
     FM170100 29006KT P6SM SCT045=



000
FTUS41 KRNK 161139
TAFROA
TAF
KROA 161139Z 1612/1712 00000KT P6SM OVC070
     FM161300 15003KT 6SM -SHRA SCT030 OVC060
      TEMPO 1613/1617 3SM -SHRA OVC030
     FM161800 24006KT P6SM SCT035 BKN110
     FM162100 28011KT P6SM BKN045
     FM170200 29012G22KT P6SM SCT050=



000
FTUS41 KRNK 161139
TAFLYH
TAF
KLYH 161139Z 1612/1712 00000KT P6SM OVC080
     FM161400 19005KT 6SM -SHRA OVC030
     FM161800 22005KT P6SM SCT018 BKN060
     FM170100 27006KT P6SM SCT045=



000
FTUS41 KRNK 161139
TAFBLF
TAF
KBLF 161139Z 1612/1712 18007KT 6SM -SHRA SCT015 OVC050
      TEMPO 1612/1615 4SM -SHRA OVC015
     FM161500 22008G16KT P6SM SCT015 BKN045
     FM162000 26009G18KT P6SM OVC025
     FM170000 27011KT P6SM OVC015
     FM170300 28008KT 6SM BR OVC007=



000
FTUS41 KRNK 161139
TAFLWB
TAF
KLWB 161139Z 1612/1712 00000KT 6SM -SHRA SCT020 OVC050
      TEMPO 1612/1616 3SM -SHRA BR OVC020
     FM161600 24004KT P6SM SCT020 BKN045
     FM162000 27007G14KT P6SM OVC025
     FM170000 28008KT P6SM OVC018=



000
FTUS41 KRNK 161139
TAFBLF
TAF
KBLF 161139Z 1612/1712 18007KT 6SM -SHRA SCT015 OVC050
      TEMPO 1612/1615 4SM -SHRA OVC015
     FM161500 22008G16KT P6SM SCT015 BKN045
     FM162000 26009G18KT P6SM OVC025
     FM170000 27011KT P6SM OVC015
     FM170300 28008KT 6SM BR OVC007=



000
FTUS41 KRNK 161139
TAFLYH
TAF
KLYH 161139Z 1612/1712 00000KT P6SM OVC080
     FM161400 19005KT 6SM -SHRA OVC030
     FM161800 22005KT P6SM SCT018 BKN060
     FM170100 27006KT P6SM SCT045=



000
FTUS41 KRNK 161139
TAFLWB
TAF
KLWB 161139Z 1612/1712 00000KT 6SM -SHRA SCT020 OVC050
      TEMPO 1612/1616 3SM -SHRA BR OVC020
     FM161600 24004KT P6SM SCT020 BKN045
     FM162000 27007G14KT P6SM OVC025
     FM170000 28008KT P6SM OVC018=



000
FTUS41 KRNK 161139
TAFDAN
TAF
KDAN 161139Z 1612/1712 20003KT P6SM SCT035 OVC080
     FM161400 23004KT 6SM -SHRA SCT015 OVC035
     FM161800 22005KT P6SM SCT025 OVC050
     FM170100 29006KT P6SM SCT045=



000
FTUS41 KRNK 161034 AAA
TAFDAN
TAF AMD
KDAN 161034Z 1611/1706 00000KT 5SM BR BKN120
     FM161200 20003KT P6SM SCT035 OVC080
     FM161500 23004KT 5SM -SHRA SCT015 OVC035
     FM161800 22005KT P6SM SCT025 OVC050
     FM170100 29006KT P6SM SCT045=



000
FTUS41 KRNK 160520
TAFLYH
TAF
KLYH 160520Z 1606/1706 00000KT P6SM BKN200
     FM161100 00000KT P6SM OVC080
     FM161500 19005KT 6SM -SHRA OVC030
     FM161800 22005KT P6SM SCT018 BKN060
     FM170100 27006KT P6SM SCT045=



000
FTUS41 KRNK 160520
TAFLYH
TAF
KLYH 160520Z 1606/1706 00000KT P6SM BKN200
     FM161100 00000KT P6SM OVC080
     FM161500 19005KT 6SM -SHRA OVC030
     FM161800 22005KT P6SM SCT018 BKN060
     FM170100 27006KT P6SM SCT045=



000
FTUS41 KRNK 160520
TAFROA
TAF
KROA 160520Z 1606/1706 00000KT P6SM BKN200
     FM160900 00000KT P6SM OVC070
     FM161300 VRB03KT 3SM -SHRA SCT030 OVC060
     FM161800 24006KT P6SM SCT035
     FM162100 28010G20KT P6SM BKN045
     FM170200 29010KT P6SM SCT050=



000
FTUS41 KRNK 160520
TAFLWB
TAF
KLWB 160520Z 1606/1706 00000KT P6SM OVC200
     FM160800 00000KT P6SM OVC050
     FM161200 00000KT 3SM -SHRA BR OVC015
     FM161600 22004KT P6SM OVC020
     FM162000 26006KT P6SM OVC028=



000
FTUS41 KRNK 160520
TAFBLF
TAF
KBLF 160520Z 1606/1706 18005KT P6SM OVC050
     FM161000 18007KT 6SM -SHRA OVC025
     FM161500 22008KT P6SM SCT020 OVC045
     FM161900 26009KT P6SM OVC025=



000
FTUS41 KRNK 160520
TAFDAN
TAF
KDAN 160520Z 1606/1706 22003KT P6SM BKN200
     FM161100 20003KT P6SM SCT050 OVC080
     FM161500 23004KT 5SM -SHRA SCT015 OVC050
     FM161800 22005KT P6SM SCT025 OVC050
     FM170100 29006KT P6SM SCT045=



    US Dept of Commerce
    National Oceanic and Atmospheric Administration
    National Weather Service
    1325 East West Highway
    Silver Spring, MD 20910
    Page Author: NWS Internet Services Team
Disclaimer
Information Quality
Credits
Glossary
Privacy Policy
Freedom of Information Act (FOIA)
About Us
Career Opportunities